Time;durP1;ratioP1;P1;durP2;ratioP2;P2;SDS_P1;SDS_P2;PMS_P1;PMS_P2;Temp;Humidity;BMP_temperature;BMP_pressure;BME280_temperature;BME280_humidity;BME280_pressure;Samples;Min_cycle;Max_cycle;Signal;HPM_P1;HPM_P2
2022/05/01 00:02:11;;;;;;;19.70;11.00;;;;;;;9.74;64.77;98563.69;1699900;82;28091;-83
2022/05/01 00:04:38;;;;;;;17.07;10.15;;;;;;;9.60;64.92;98565.40;1733592;80;28110;-83
2022/05/01 00:07:04;;;;;;;19.87;10.60;;;;;;;9.52;65.11;98569.45;1741866;80;28138;-83
2022/05/01 00:09:31;;;;;;;19.35;10.53;;;;;;;9.43;65.35;98567.42;1733067;80;28237;-83
2022/05/01 00:11:57;;;;;;;17.00;9.78;;;;;;;9.34;65.64;98569.29;1748327;80;43396;-83
2022/05/01 00:14:23;;;;;;;16.87;9.88;;;;;;;9.24;66.00;98575.56;1705678;82;28126;-84
2022/05/01 00:16:50;;;;;;;19.30;10.28;;;;;;;9.17;66.40;98572.48;1745173;80;43373;-83
2022/05/01 00:19:16;;;;;;;17.37;9.40;;;;;;;9.16;66.83;98575.21;1739520;80;28241;-84
2022/05/01 00:21:42;;;;;;;15.88;8.93;;;;;;;9.15;67.27;98571.77;1748934;80;28113;-83
2022/05/01 00:24:09;;;;;;;15.78;9.10;;;;;;;9.17;67.71;98574.25;1742280;80;28165;-84
2022/05/01 00:26:35;;;;;;;19.25;10.48;;;;;;;9.14;68.11;98574.45;1754257;80;28086;-84
2022/05/01 00:29:02;;;;;;;19.55;9.95;;;;;;;9.11;68.52;98566.33;1743453;80;28151;-83
2022/05/01 00:31:29;;;;;;;15.63;9.68;;;;;;;9.12;68.98;98564.56;1704786;81;28083;-84
2022/05/01 00:36:40;;;;;;;14.47;9.15;;;;;;;9.27;69.96;98562.80;1706170;81;42914;-83
2022/05/01 00:39:12;;;;;;;15.32;8.55;;;;;;;9.18;70.32;98565.49;1712522;81;28071;-83
2022/05/01 00:41:40;;;;;;;18.95;9.68;;;;;;;9.06;70.69;98560.56;1677976;83;28085;-83
2022/05/01 00:44:12;;;;;;;15.43;8.60;;;;;;;8.99;71.08;98565.80;1700991;82;28082;-83
2022/05/01 00:46:45;;;;;;;14.83;8.75;;;;;;;8.95;71.47;98564.75;1745409;80;28009;-83
2022/05/01 00:49:18;;;;;;;18.42;9.63;;;;;;;8.97;71.98;98566.81;1743368;80;28104;-83
2022/05/01 00:51:48;;;;;;;13.85;9.68;;;;;;;9.05;72.56;98556.30;1683386;82;28108;-83
2022/05/01 00:54:20;;;;;;;17.90;10.00;;;;;;;9.17;73.12;98555.52;1749902;80;43470;-84
2022/05/01 00:56:52;;;;;;;19.20;10.28;;;;;;;9.27;73.57;98551.89;1752120;80;43366;-83
2022/05/01 00:59:19;;;;;;;15.25;9.48;;;;;;;9.28;73.88;98552.23;1734515;79;28177;-83
2022/05/01 01:01:48;;;;;;;15.45;10.13;;;;;;;9.18;73.92;98558.50;1705286;81;43372;-84
2022/05/01 01:04:15;;;;;;;19.27;11.03;;;;;;;9.15;74.10;98562.63;1745403;80;43409;-84
2022/05/01 01:06:43;;;;;;;23.38;11.85;;;;;;;9.19;74.38;98552.81;1744026;80;44205;-84
2022/05/01 01:09:10;;;;;;;20.65;11.75;;;;;;;9.20;74.60;98559.25;1736493;80;43370;-83
2022/05/01 01:11:38;;;;;;;18.37;11.70;;;;;;;9.16;74.73;98560.36;1740325;80;43407;-83
2022/05/01 01:14:05;;;;;;;22.62;12.33;;;;;;;9.09;74.83;98556.94;1740176;79;44095;-82
2022/05/01 01:16:37;;;;;;;22.02;12.30;;;;;;;9.01;74.95;98556.09;1751263;80;44061;-83
2022/05/01 01:19:05;;;;;;;19.20;11.35;;;;;;;8.95;75.12;98557.77;1742574;80;43378;-83
2022/05/01 01:21:31;;;;;;;22.22;10.35;;;;;;;8.98;75.44;98559.36;1745131;80;44084;-82
2022/05/01 01:23:59;;;;;;;18.10;10.35;;;;;;;9.03;75.77;98552.93;1752332;80;43373;-83
2022/05/01 01:26:28;;;;;;;17.02;10.15;;;;;;;9.01;75.98;98557.39;1707423;82;43439;-82
2022/05/01 01:28:57;;;;;;;15.23;8.65;;;;;;;8.95;76.12;98559.53;1678676;83;42921;-82
2022/05/01 01:31:42;;;;;;;15.60;9.15;;;;;;;9.04;76.48;98561.60;1747309;80;42903;-83
2022/05/01 01:34:14;;;;;;;17.57;9.33;;;;;;;9.09;76.84;98563.00;1705016;81;42933;-82
2022/05/01 01:36:43;;;;;;;16.62;9.90;;;;;;;9.05;77.01;98556.76;1706445;81;42900;-82
2022/05/01 01:39:09;;;;;;;18.37;10.68;;;;;;;9.13;77.31;98558.41;1679559;82;43399;-83
2022/05/01 01:41:37;;;;;;;29.05;15.58;;;;;;;9.18;77.61;98553.28;1686977;83;43835;-82
2022/05/01 01:44:04;;;;;;;22.58;12.88;;;;;;;9.12;77.68;98556.27;1694516;82;44076;-84
2022/05/01 01:46:32;;;;;;;20.27;11.68;;;;;;;8.99;77.72;98555.83;1698567;82;43764;-83
2022/05/01 01:48:59;;;;;;;20.72;10.90;;;;;;;8.87;77.75;98557.88;1743427;80;43387;-84
2022/05/01 01:51:26;;;;;;;21.10;10.82;;;;;;;8.78;77.87;98552.27;1727051;80;43417;-84
2022/05/01 01:53:53;;;;;;;14.73;9.15;;;;;;;8.77;78.12;98554.53;1752961;80;42869;-83
2022/05/01 01:56:19;;;;;;;19.45;11.43;;;;;;;8.69;78.27;98545.01;1741479;80;43413;-83
2022/05/01 01:58:46;;;;;;;24.75;12.65;;;;;;;8.66;78.48;98545.20;1707516;82;44182;-83
2022/05/01 02:01:12;;;;;;;19.30;11.35;;;;;;;8.60;78.71;98541.66;1742551;80;43409;-83
2022/05/01 02:03:39;;;;;;;15.23;9.58;;;;;;;8.52;78.95;98547.78;1743703;79;42935;-83
2022/05/01 02:06:06;;;;;;;15.75;8.80;;;;;;;8.38;79.21;98552.53;1731777;80;42870;-83
2022/05/01 02:08:36;;;;;;;18.50;10.43;;;;;;;8.11;79.38;98550.66;1748930;80;43422;-83
2022/05/01 02:11:10;;;;;;;20.82;10.55;;;;;;;7.86;79.56;98549.91;1746637;80;43720;-83
2022/05/01 02:13:37;;;;;;;15.13;9.90;;;;;;;7.68;79.90;98549.67;1738616;80;43132;-84
2022/05/01 02:16:04;;;;;;;19.73;11.30;;;;;;;7.56;80.32;98555.10;1705805;82;43764;-84
2022/05/01 02:18:30;;;;;;;17.60;10.82;;;;;;;7.51;80.75;98555.36;1706198;81;43483;-84
2022/05/01 02:23:44;;;;;;;18.40;11.15;;;;;;;7.78;81.99;98556.88;1744594;80;43381;-83
2022/05/01 02:26:12;;;;;;;18.60;11.08;;;;;;;7.96;82.75;98559.72;1750004;80;43363;-84
2022/05/01 02:28:39;;;;;;;19.00;11.18;;;;;;;8.10;83.32;98556.80;1745824;80;43411;-84
2022/05/01 02:31:05;;;;;;;19.70;11.97;;;;;;;8.25;83.86;98554.14;1743462;80;44116;-83
2022/05/01 02:33:31;;;;;;;17.07;11.03;;;;;;;8.34;84.19;98560.17;1744307;80;43369;-83
2022/05/01 02:35:58;;;;;;;17.98;10.35;;;;;;;8.31;84.33;98554.27;1704675;82;43392;-83
2022/05/01 02:38:24;;;;;;;17.10;10.00;;;;;;;8.28;84.46;98556.58;1744330;80;43402;-83
2022/05/01 02:40:51;;;;;;;18.60;10.90;;;;;;;8.30;84.67;98552.59;1722320;80;43428;-84
2022/05/01 02:43:17;;;;;;;16.82;11.03;;;;;;;8.39;85.01;98546.86;1708246;81;43373;-84
2022/05/01 02:45:43;;;;;;;17.48;10.53;;;;;;;8.52;85.40;98546.48;1708285;81;43468;-84
2022/05/01 02:48:09;;;;;;;19.17;10.63;;;;;;;8.69;85.77;98543.70;1756815;80;43405;-84
2022/05/01 02:50:36;;;;;;;18.98;10.55;;;;;;;8.84;86.05;98546.33;1744439;80;43369;-84
2022/05/01 02:53:05;;;;;;;17.73;9.83;;;;;;;8.93;86.21;98547.91;1747912;80;43106;-84
2022/05/01 02:55:36;;;;;;;13.43;9.20;;;;;;;8.96;86.26;98542.95;1707271;82;41975;-84
2022/05/01 02:58:00;;;;;;;14.58;8.73;;;;;;;8.96;86.32;98536.42;1745433;80;42727;-84
2022/05/01 03:00:26;;;;;;;20.30;10.13;;;;;;;8.98;86.42;98536.72;1753202;80;43441;-84
2022/05/01 03:02:55;;;;;;;17.35;10.40;;;;;;;9.06;86.55;98534.92;1744207;80;43413;-84
2022/05/01 03:05:21;;;;;;;18.80;11.75;;;;;;;9.02;86.54;98538.20;1745945;80;43374;-84
2022/05/01 03:07:48;;;;;;;18.17;10.28;;;;;;;8.86;86.37;98547.91;1751108;80;43392;-84
2022/05/01 03:10:15;;;;;;;20.55;10.68;;;;;;;8.72;86.23;98546.61;1714446;81;43384;-84
2022/05/01 03:12:42;;;;;;;19.60;12.05;;;;;;;8.65;86.30;98546.59;1696730;82;43407;-84
2022/05/01 03:15:09;;;;;;;23.65;13.72;;;;;;;8.61;86.42;98546.41;1709617;82;44213;-84
2022/05/01 03:23:05;;;;;;;22.48;13.45;;;;;;;8.50;86.76;98544.45;1740986;80;44102;-84
2022/05/01 03:25:32;;;;;;;21.85;14.65;;;;;;;8.46;86.90;98549.91;1730192;80;44093;-85
2022/05/01 03:27:59;;;;;;;24.02;12.75;;;;;;;8.38;86.96;98550.39;1711779;82;44066;-84
2022/05/01 03:30:26;;;;;;;22.77;13.58;;;;;;;8.33;87.11;98552.43;1752476;80;44081;-85
2022/05/01 03:32:52;;;;;;;22.70;13.58;;;;;;;8.30;87.29;98549.98;1746329;80;44057;-85
2022/05/01 03:35:19;;;;;;;30.25;16.48;;;;;;;8.33;87.59;98545.91;1743508;80;43740;-84
2022/05/01 03:37:47;;;;;;;24.23;14.65;;;;;;;8.41;87.90;98543.67;1703330;82;44118;-85
2022/05/01 03:40:15;;;;;;;20.97;13.30;;;;;;;8.48;88.23;98541.55;1712882;80;44063;-83
2022/05/01 03:42:43;;;;;;;19.37;13.15;;;;;;;8.53;88.49;98542.95;1704561;81;44051;-84
2022/05/01 03:45:10;;;;;;;21.15;13.13;;;;;;;8.55;88.68;98545.02;1706587;82;44059;-84
2022/05/01 03:47:37;;;;;;;21.57;13.60;;;;;;;8.54;88.77;98548.55;1746239;79;44067;-84
2022/05/01 03:50:05;;;;;;;22.40;13.62;;;;;;;8.51;88.87;98551.81;1745706;80;44122;-84
2022/05/01 03:52:33;;;;;;;20.80;13.25;;;;;;;8.47;88.98;98551.14;1748004;80;44158;-83
2022/05/01 03:55:00;;;;;;;23.62;13.98;;;;;;;8.40;89.04;98547.20;1746213;80;44182;-83
2022/05/01 03:57:27;;;;;;;19.65;12.88;;;;;;;8.31;89.16;98547.30;1756127;80;44088;-84
2022/05/01 03:59:53;;;;;;;24.07;14.18;;;;;;;8.29;89.34;98552.20;1760337;80;44435;-84
2022/05/01 04:02:19;;;;;;;24.10;14.30;;;;;;;8.28;89.54;98553.97;1744045;80;44087;-84
2022/05/01 04:04:48;;;;;;;20.85;12.33;;;;;;;8.24;89.73;98546.39;1756082;80;44142;-84
2022/05/01 04:07:14;;;;;;;18.00;10.88;;;;;;;8.23;90.01;98547.35;1775028;80;43404;-84
2022/05/01 04:09:40;;;;;;;19.35;11.40;;;;;;;8.21;90.27;98550.50;1774175;80;43373;-84
2022/05/01 04:12:10;;;;;;;19.55;10.63;;;;;;;8.18;90.51;98554.60;1774825;79;43390;-84
2022/05/01 04:14:37;;;;;;;20.50;12.40;;;;;;;8.12;90.70;98556.26;1774898;79;44059;-84
2022/05/01 04:17:09;;;;;;;16.00;11.20;;;;;;;8.16;91.05;98552.54;1772174;80;43385;-84
2022/05/01 04:19:36;;;;;;;16.95;10.60;;;;;;;8.20;91.41;98554.03;1778207;79;43366;-82
2022/05/01 04:22:04;;;;;;;20.82;12.47;;;;;;;8.27;91.76;98554.05;1773361;80;44056;-83
2022/05/01 04:24:31;;;;;;;35.00;17.17;;;;;;;8.47;92.35;98555.51;1777197;80;43378;-83
2022/05/01 04:26:57;;;;;;;43.45;19.80;;;;;;;8.62;92.86;98554.13;1775951;79;44123;-83
2022/05/01 04:29:43;;;;;;;36.53;18.92;;;;;;;8.78;93.29;98557.48;1777417;80;43361;-85
2022/05/01 04:32:16;;;;;;;36.25;18.52;;;;;;;8.81;93.39;98559.09;1771756;80;43192;-83
2022/05/01 04:34:44;;;;;;;32.53;18.10;;;;;;;8.73;93.30;98556.09;1735401;80;43058;-83
2022/05/01 04:37:10;;;;;;;21.15;13.55;;;;;;;8.67;93.27;98563.01;1773081;79;44055;-83
2022/05/01 04:39:37;;;;;;;23.25;12.70;;;;;;;8.61;93.30;98559.45;1777381;80;44083;-84
2022/05/01 04:42:03;;;;;;;22.85;13.13;;;;;;;8.59;93.42;98558.23;1775481;79;44138;-86
2022/05/01 04:44:32;;;;;;;24.20;13.30;;;;;;;8.60;93.61;98562.53;1776427;80;44078;-86
2022/05/01 04:46:58;;;;;;;23.38;13.50;;;;;;;8.68;93.96;98560.28;1768362;80;44063;-87
2022/05/01 04:49:25;;;;;;;20.72;13.05;;;;;;;8.77;94.33;98562.83;1779337;80;44199;-87
2022/05/01 04:51:51;;;;;;;26.10;13.68;;;;;;;8.93;94.83;98559.66;1778120;80;28107;-87
2022/05/01 04:54:18;;;;;;;24.18;14.40;;;;;;;9.25;95.58;98555.05;1774284;80;44086;-87
2022/05/01 04:59:29;;;;;;;22.15;16.25;;;;;;;9.54;96.23;98563.20;1779804;80;28017;-87
2022/05/01 05:01:55;;;;;;;25.37;14.65;;;;;;;9.65;96.38;98554.19;1778961;80;28344;-86
2022/05/01 05:04:22;;;;;;;21.95;14.35;;;;;;;9.83;96.71;98561.31;1773265;80;28058;-87
2022/05/01 05:06:52;;;;;;;24.02;15.05;;;;;;;9.99;96.92;98556.77;1778936;79;44079;-86
2022/05/01 05:12:03;;;;;;;26.85;14.98;;;;;;;10.32;97.45;98552.42;1776038;80;27991;-86
2022/05/01 05:14:29;;;;;;;30.52;14.85;;;;;;;10.53;97.83;98552.75;1776164;79;28055;-86
2022/05/01 05:16:57;;;;;;;20.37;11.95;;;;;;;10.67;98.04;98562.30;1776433;79;28055;-86
2022/05/01 05:19:23;;;;;;;18.17;11.50;;;;;;;10.77;98.14;98558.10;1779758;80;28149;-85
2022/05/01 05:21:49;;;;;;;24.20;11.80;;;;;;;10.90;98.01;98564.18;1778014;80;28088;-85
2022/05/01 05:24:16;;;;;;;19.82;10.75;;;;;;;11.05;98.02;98560.49;1771391;80;28071;-85
2022/05/01 05:26:42;;;;;;;25.20;13.15;;;;;;;11.15;97.91;98561.52;1774750;79;27988;-86
2022/05/01 05:29:08;;;;;;;20.02;10.85;;;;;;;11.25;97.75;98563.86;1777898;80;28215;-85
2022/05/01 05:31:35;;;;;;;15.70;9.75;;;;;;;11.37;97.79;98564.77;1771795;79;28138;-86
2022/05/01 05:34:01;;;;;;;17.77;11.63;;;;;;;11.43;97.66;98570.89;1723319;81;28092;-87
2022/05/01 05:36:28;;;;;;;24.02;14.13;;;;;;;11.50;97.55;98570.83;1773257;80;28075;-86
2022/05/01 05:38:54;;;;;;;25.37;14.68;;;;;;;11.55;97.52;98569.19;1775935;80;28453;-85
2022/05/01 05:41:21;;;;;;;27.15;14.98;;;;;;;11.63;97.63;98573.39;1769094;80;28018;-86
2022/05/01 05:43:47;;;;;;;30.97;15.48;;;;;;;11.67;97.77;98570.94;1769529;80;28104;-86
2022/05/01 05:46:14;;;;;;;25.08;16.48;;;;;;;11.69;97.85;98571.64;1776094;79;28078;-86
2022/05/01 05:48:41;;;;;;;28.90;16.35;;;;;;;11.69;97.88;98572.48;1775142;80;28034;-86
2022/05/01 05:51:07;;;;;;;25.23;15.15;;;;;;;11.78;98.07;98568.87;1770268;79;28174;-86
2022/05/01 05:53:34;;;;;;;21.07;14.78;;;;;;;11.83;98.19;98575.94;1753421;80;28140;-86
2022/05/01 05:56:01;;;;;;;21.57;13.65;;;;;;;11.86;98.15;98575.70;1765609;80;28004;-86
2022/05/01 05:58:27;;;;;;;21.95;15.23;;;;;;;11.89;98.15;98578.11;1756529;80;28098;-86
2022/05/01 06:00:53;;;;;;;23.55;15.03;;;;;;;11.90;98.27;98583.70;1770653;80;28185;-86
2022/05/01 06:03:20;;;;;;;22.73;14.20;;;;;;;12.00;98.41;98587.34;1752295;80;28112;-86
2022/05/01 06:05:46;;;;;;;22.90;13.90;;;;;;;12.05;98.52;98586.06;1754113;80;28039;-86
2022/05/01 06:08:13;;;;;;;24.37;15.58;;;;;;;12.14;98.55;98589.78;1751067;80;28141;-86
2022/05/01 06:10:39;;;;;;;29.32;17.40;;;;;;;12.25;98.71;98591.61;1757259;80;28190;-86
2022/05/01 06:13:06;;;;;;;27.00;16.55;;;;;;;12.31;98.75;98600.34;1763069;80;28090;-86
2022/05/01 06:15:32;;;;;;;27.90;17.52;;;;;;;12.40;98.88;98594.41;1756496;80;28359;-86
2022/05/01 06:17:58;;;;;;;24.47;15.38;;;;;;;12.45;98.81;98600.98;1761997;80;28078;-86
2022/05/01 06:20:26;;;;;;;22.22;14.28;;;;;;;12.48;98.65;98596.00;1750439;80;28211;-85
2022/05/01 06:22:53;;;;;;;23.87;14.87;;;;;;;12.50;98.47;98590.13;1755548;80;28145;-86
2022/05/01 06:25:19;;;;;;;21.95;14.47;;;;;;;12.51;98.26;98586.56;1764702;79;28317;-85
2022/05/01 06:27:45;;;;;;;24.98;16.32;;;;;;;12.52;98.10;98589.08;1743712;80;28068;-86
2022/05/01 06:30:12;;;;;;;23.12;15.05;;;;;;;12.52;97.89;98588.24;1752308;80;28479;-85
2022/05/01 06:32:40;;;;;;;20.62;14.35;;;;;;;12.48;97.59;98586.81;1712676;80;28105;-85
2022/05/01 06:35:08;;;;;;;22.05;14.45;;;;;;;12.51;97.49;98583.94;1686018;83;28081;-85
2022/05/01 06:37:35;;;;;;;25.75;16.35;;;;;;;12.62;97.46;98588.38;1724199;81;28089;-84
2022/05/01 06:40:03;;;;;;;22.35;14.95;;;;;;;12.67;97.32;98591.02;1704822;80;28175;-85
2022/05/01 06:42:32;;;;;;;22.90;14.47;;;;;;;12.69;97.08;98592.22;1709098;81;28159;-85
2022/05/01 06:44:58;;;;;;;22.82;14.87;;;;;;;12.66;96.83;98588.02;1699695;82;28579;-85
2022/05/01 06:47:25;;;;;;;20.50;14.47;;;;;;;12.60;96.51;98589.80;1762217;80;28086;-85
2022/05/01 06:49:51;;;;;;;21.87;14.00;;;;;;;12.58;96.22;98593.03;1761892;80;28178;-85
2022/05/01 06:52:23;;;;;;;18.70;13.58;;;;;;;12.60;96.10;98597.67;1750196;80;28072;-86
2022/05/01 06:54:53;;;;;;;;;;;;;;;12.67;96.20;98595.42;1758930;80;28186;-86
2022/05/01 06:57:19;;;;;;;24.47;13.05;;;;;;;12.64;95.94;98596.98;1758068;80;20553;-86
2022/05/01 06:59:46;;;;;;;17.80;12.80;;;;;;;12.63;95.90;98597.45;1768155;80;28108;-86
2022/05/01 07:02:14;;;;;;;18.30;13.10;;;;;;;12.60;95.85;98600.30;1753777;80;28134;-86
2022/05/01 07:04:40;;;;;;;18.48;12.90;;;;;;;12.68;96.03;98601.89;1757148;80;28060;-86
2022/05/01 07:07:07;;;;;;;20.02;13.53;;;;;;;12.71;96.15;98602.14;1759382;80;28086;-86
2022/05/01 07:09:33;;;;;;;19.15;13.53;;;;;;;12.73;96.22;98598.43;1758975;80;28091;-87
2022/05/01 07:12:00;;;;;;;18.00;12.85;;;;;;;12.89;96.55;98600.72;1732399;80;28014;-86
2022/05/01 07:14:28;;;;;;;23.83;12.78;;;;;;;13.04;96.82;98601.36;1774408;79;28092;-87
2022/05/01 07:16:54;;;;;;;20.52;13.13;;;;;;;13.18;97.08;98595.89;1773767;80;28148;-85
2022/05/01 07:19:20;;;;;;;20.32;12.43;;;;;;;13.33;97.38;98597.31;1776985;80;27986;-86
2022/05/01 07:21:47;;;;;;;16.32;12.50;;;;;;;13.40;97.32;98599.35;1774559;80;28239;-86
2022/05/01 07:24:15;;;;;;;19.57;12.70;;;;;;;13.54;97.33;98590.84;1775751;80;28077;-86
2022/05/01 07:26:41;;;;;;;16.42;10.93;;;;;;;13.63;97.22;98587.02;1775871;80;28157;-86
2022/05/01 07:29:08;;;;;;;19.45;11.25;;;;;;;13.69;96.98;98582.55;1775644;80;28043;-85
2022/05/01 07:31:34;;;;;;;15.03;11.25;;;;;;;13.78;96.87;98583.63;1774360;80;28176;-85
2022/05/01 07:34:00;;;;;;;19.65;12.15;;;;;;;13.81;96.65;98585.52;1768827;80;28183;-86
2022/05/01 07:36:26;;;;;;;19.70;12.37;;;;;;;13.88;96.47;98579.77;1773903;80;28063;-85
2022/05/01 07:38:53;;;;;;;19.57;12.37;;;;;;;14.02;96.62;98579.50;1770013;79;28163;-85
2022/05/01 07:41:19;;;;;;;22.93;13.35;;;;;;;14.18;96.83;98578.60;1769429;79;27994;-86
2022/05/01 07:43:49;;;;;;;19.50;12.60;;;;;;;14.33;96.86;98578.65;1771853;79;28213;-86
2022/05/01 07:46:15;;;;;;;20.43;12.55;;;;;;;14.44;96.84;98579.95;1775882;79;28142;-85
2022/05/01 07:48:43;;;;;;;16.37;12.13;;;;;;;14.52;96.75;98572.22;1776934;80;28034;-85
2022/05/01 07:51:10;;;;;;;12.58;9.90;;;;;;;14.60;96.62;98574.23;1778564;79;28088;-86
2022/05/01 07:53:36;;;;;;;20.68;12.13;;;;;;;14.62;96.29;98573.59;1776936;80;28091;-86
2022/05/01 07:56:03;;;;;;;17.23;10.45;;;;;;;14.69;96.15;98571.28;1779167;80;28012;-86
2022/05/01 07:58:29;;;;;;;13.55;9.68;;;;;;;14.77;95.87;98575.44;1776908;80;28169;-85
2022/05/01 08:00:59;;;;;;;17.40;10.40;;;;;;;14.81;95.39;98571.09;1725356;81;28248;-85
2022/05/01 08:06:11;;;;;;;17.55;12.30;;;;;;;14.89;94.23;98567.30;1703975;83;28128;-86
2022/05/01 08:08:40;;;;;;;14.75;11.15;;;;;;;14.99;94.13;98561.63;1681286;83;28144;-86
2022/05/01 08:11:07;;;;;;;16.90;11.78;;;;;;;15.08;93.99;98564.78;1753228;80;28071;-86
2022/05/01 08:13:34;;;;;;;14.30;10.18;;;;;;;15.13;93.28;98563.55;1746949;80;28203;-86
2022/05/01 08:16:01;;;;;;;14.78;10.75;;;;;;;15.15;92.58;98557.67;1745406;80;28104;-86
2022/05/01 08:21:17;;;;;;;14.15;9.35;;;;;;;15.21;91.35;98551.39;1740535;80;28065;-85
2022/05/01 08:23:43;;;;;;;16.35;10.50;;;;;;;15.27;90.50;98551.34;1704177;82;28092;-85
2022/05/01 08:26:11;;;;;;;13.60;8.80;;;;;;;15.38;89.96;98549.92;1709123;81;28227;-86
2022/05/01 08:28:40;;;;;;;12.98;9.25;;;;;;;15.51;89.67;98547.85;1742751;80;28088;-87
2022/05/01 08:31:07;;;;;;;12.07;8.38;;;;;;;15.60;88.98;98544.42;1747032;80;28141;-86
2022/05/01 08:33:34;;;;;;;9.83;7.05;;;;;;;15.70;88.46;98537.39;1711734;82;28140;-86
2022/05/01 08:36:05;;;;;;;11.63;7.17;;;;;;;15.81;87.97;98534.62;1707463;82;28074;-86
2022/05/01 08:38:32;;;;;;;9.55;6.95;;;;;;;15.96;87.03;98540.33;1711445;82;28198;-86
2022/05/01 08:40:59;;;;;;;11.20;8.10;;;;;;;16.10;86.40;98546.50;1706634;82;28172;-86
2022/05/01 08:43:26;;;;;;;11.18;7.00;;;;;;;16.26;85.63;98545.93;1750305;79;28076;-86
2022/05/01 08:46:18;;;;;;;13.65;7.10;;;;;;;16.41;85.39;98539.75;1706219;82;28199;-86
2022/05/01 08:48:56;;;;;;;9.95;6.53;;;;;;;16.54;84.96;98537.63;1709804;82;28068;-87
2022/05/01 08:51:23;;;;;;;9.58;6.92;;;;;;;16.70;84.40;98540.55;1750742;80;28057;-85
2022/05/01 08:53:52;;;;;;;9.53;7.08;;;;;;;16.83;83.76;98537.12;1701398;82;28109;-85
2022/05/01 08:56:18;;;;;;;11.68;6.90;;;;;;;16.92;82.94;98539.38;1709070;82;28096;-85
2022/05/01 08:58:47;;;;;;;10.95;7.10;;;;;;;16.96;82.10;98531.03;1712342;81;28043;-84
2022/05/01 09:01:15;;;;;;;10.50;6.45;;;;;;;17.06;81.14;98533.63;1707310;82;28157;-84
2022/05/01 09:03:44;;;;;;;12.40;7.50;;;;;;;17.12;80.22;98531.25;1752773;80;28094;-85
2022/05/01 09:06:11;;;;;;;10.68;6.62;;;;;;;17.20;79.28;98525.69;1759913;80;28112;-84
2022/05/01 09:08:39;;;;;;;10.32;7.08;;;;;;;17.27;78.47;98522.81;1761433;80;28106;-85
2022/05/01 09:13:53;;;;;;;8.88;6.25;;;;;;;17.39;76.54;98520.32;1742626;80;28239;-86
2022/05/01 09:16:19;;;;;;;9.38;5.70;;;;;;;17.46;75.79;98525.34;1739446;80;28177;-87
2022/05/01 09:18:47;;;;;;;8.13;5.97;;;;;;;17.45;74.69;98521.89;1714781;81;28088;-86
2022/05/01 09:21:14;;;;;;;7.35;5.20;;;;;;;17.45;73.79;98525.03;1763176;80;28106;-85
2022/05/01 09:23:46;;;;;;;8.48;5.83;;;;;;;17.50;73.09;98522.77;1755066;80;28126;-85
2022/05/01 09:26:13;;;;;;;;;;;;;;;17.57;72.39;98518.52;1727786;81;28098;-85
2022/05/01 09:28:51;;;;;;;9.85;5.72;;;;;;;17.64;71.71;98516.98;1747010;80;24898;-86
2022/05/01 09:31:20;;;;;;;8.08;6.03;;;;;;;17.71;71.04;98518.55;1752287;80;28143;-86
2022/05/01 09:33:46;;;;;;;8.35;5.85;;;;;;;17.86;70.79;98511.26;1710348;81;28154;-86
2022/05/01 09:36:25;;;;;;;7.10;4.90;;;;;;;18.05;70.15;98514.75;1743209;80;28095;-86
2022/05/01 09:39:04;;;;;;;8.48;6.05;;;;;;;18.11;69.54;98515.47;1709287;81;28013;-88
2022/05/01 09:41:30;;;;;;;8.00;5.78;;;;;;;18.07;68.38;98514.08;1747523;80;28111;-86
2022/05/01 09:43:56;;;;;;;7.17;5.03;;;;;;;18.02;66.98;98513.22;1761271;80;28085;-87
2022/05/01 09:46:27;;;;;;;6.87;5.33;;;;;;;18.05;66.21;98516.08;1762404;80;28081;-87
2022/05/01 09:48:59;;;;;;;7.33;5.40;;;;;;;18.02;64.90;98521.16;1759245;80;28133;-86
2022/05/01 09:51:52;;;;;;;;;;;;;;;;;;;;;
2022/05/01 09:54:05;;;;;;;7.40;6.03;;;;;;;18.12;64.10;98507.34;1711895;81;28042;-87
2022/05/01 09:56:49;;;;;;;9.85;6.58;;;;;;;18.20;63.93;98512.73;1760595;80;28075;-87
2022/05/01 09:59:17;;;;;;;8.85;6.25;;;;;;;18.20;63.46;98512.73;1717914;81;28069;-88
2022/05/01 10:01:56;;;;;;;9.93;6.40;;;;;;;18.10;62.69;98505.85;1745852;81;28123;-87
2022/05/01 10:04:24;;;;;;;7.35;6.00;;;;;;;18.13;62.47;98510.83;1711916;81;28074;-87
2022/05/01 10:06:55;;;;;;;10.78;7.20;;;;;;;18.11;61.93;98511.49;1678804;83;28126;-88
2022/05/01 10:09:26;;;;;;;11.43;6.58;;;;;;;18.01;61.29;98507.58;1719549;81;28104;-87
2022/05/01 10:11:56;;;;;;;10.23;6.30;;;;;;;18.00;60.95;98509.08;1706454;81;28108;-87
2022/05/01 10:14:32;;;;;;;7.92;6.17;;;;;;;18.05;60.75;98510.77;1710683;82;28013;-88
2022/05/01 10:17:02;;;;;;;7.22;5.83;;;;;;;18.10;60.70;98511.98;1706333;81;28145;-88
2022/05/01 10:19:29;;;;;;;8.48;6.15;;;;;;;18.23;60.73;98498.33;1709070;82;28115;-88
2022/05/01 10:21:56;;;;;;;9.50;5.97;;;;;;;18.29;60.42;98503.02;1707821;81;28109;-87
2022/05/01 10:24:24;;;;;;;8.20;5.72;;;;;;;18.26;59.93;98498.03;1708201;82;28046;-83
2022/05/01 10:27:15;;;;;;;9.55;5.70;;;;;;;18.28;59.61;98493.39;1704788;81;28123;-86
2022/05/01 10:32:50;;;;;;;8.73;4.72;;;;;;;18.42;59.27;98495.50;1706516;81;28158;-87
2022/05/01 10:35:31;;;;;;;8.38;5.90;;;;;;;18.47;59.12;98493.71;1698307;82;28240;-87
2022/05/01 10:38:23;;;;;;;9.50;5.90;;;;;;;18.51;58.92;98494.56;1696696;82;28134;-87
2022/05/01 10:40:52;;;;;;;6.62;5.53;;;;;;;18.62;58.80;98495.66;1700928;82;28097;-87
2022/05/01 10:43:25;;;;;;;9.43;5.85;;;;;;;18.68;58.51;98488.41;1701879;81;28041;-88
2022/05/01 10:45:53;;;;;;;8.35;6.15;;;;;;;18.58;57.63;98490.84;1709287;81;28500;-87
2022/05/01 10:48:32;;;;;;;8.05;5.35;;;;;;;18.50;56.98;98491.57;1706725;81;28091;-88
2022/05/01 10:51:30;;;;;;;7.57;5.13;;;;;;;18.50;56.56;98491.57;1704670;81;28132;-88
2022/05/01 10:54:20;;;;;;;8.40;5.62;;;;;;;18.48;55.87;98486.10;1702853;81;36821;-87
2022/05/01 10:56:50;;;;;;;7.15;5.30;;;;;;;18.58;55.71;98489.02;1712140;82;28074;-88
2022/05/01 10:59:34;;;;;;;7.35;5.22;;;;;;;18.72;55.64;98484.45;1701074;82;28068;-87
2022/05/01 11:02:05;;;;;;;7.30;5.67;;;;;;;18.79;55.56;98489.48;1705642;81;28075;-87
2022/05/01 11:04:41;;;;;;;6.70;5.78;;;;;;;18.84;55.27;98482.86;1675285;83;28013;-88
2022/05/01 11:07:13;;;;;;;6.42;5.20;;;;;;;18.77;54.86;98490.11;1714800;80;28086;-87
2022/05/01 11:09:45;;;;;;;6.87;4.85;;;;;;;18.80;54.65;98488.49;1710121;82;28120;-87
2022/05/01 11:12:13;;;;;;;;;;;;;;;18.70;54.06;98487.77;1761652;80;28187;-87
2022/05/01 11:14:57;;;;;;;8.23;5.80;;;;;;;18.61;53.70;98484.72;1759358;80;21985;-88
2022/05/01 11:17:46;;;;;;;8.23;6.10;;;;;;;18.67;53.62;98493.38;1762369;80;28105;-87
2022/05/01 11:20:25;;;;;;;9.08;6.00;;;;;;;18.61;53.32;98492.67;1759444;80;28180;-87
2022/05/01 11:22:52;;;;;;;7.20;5.50;;;;;;;18.54;53.07;98489.00;1760072;80;28087;-88
2022/05/01 11:25:25;;;;;;;8.85;6.10;;;;;;;18.55;53.05;98485.34;1737216;80;28087;-88
2022/05/01 11:27:53;;;;;;;8.58;6.35;;;;;;;18.58;53.08;98488.19;1749636;80;28074;-87
2022/05/01 11:30:33;;;;;;;8.65;5.67;;;;;;;18.61;53.17;98490.51;1742195;81;28005;-87
2022/05/01 11:33:08;;;;;;;10.65;5.78;;;;;;;18.56;53.27;98490.98;1701033;82;28101;-86
2022/05/01 11:35:58;;;;;;;10.53;6.30;;;;;;;18.63;53.48;98492.52;1749666;80;28173;-87
2022/05/01 11:38:34;;;;;;;7.15;5.08;;;;;;;18.66;53.44;98493.03;1763058;80;28111;-88
2022/05/01 11:41:02;;;;;;;5.85;4.90;;;;;;;18.66;53.30;98494.36;1746803;80;28020;-87
2022/05/01 11:43:30;;;;;;;6.12;4.22;;;;;;;18.48;53.07;98498.87;1757562;80;28063;-88
2022/05/01 11:45:58;;;;;;;6.35;3.77;;;;;;;18.30;52.68;98502.87;1742865;80;28123;-88
2022/05/01 11:48:28;;;;;;;5.85;4.17;;;;;;;18.12;52.07;98499.40;1725292;81;28126;-88
2022/05/01 11:50:58;;;;;;;5.78;4.37;;;;;;;18.04;51.58;98498.52;1737070;80;28161;-88
2022/05/01 11:53:26;;;;;;;4.92;4.37;;;;;;;17.96;50.93;98497.45;1736921;81;28130;-88
2022/05/01 12:04:31;;;;;;;6.95;4.20;;;;;;;18.11;51.11;98488.98;1731809;80;28193;-88
2022/05/01 12:07:14;;;;;;;4.80;4.25;;;;;;;18.11;51.30;98489.78;1716446;81;28139;-88
2022/05/01 12:09:42;;;;;;;5.37;3.77;;;;;;;18.07;51.23;98491.57;1729316;81;28051;-88
2022/05/01 12:12:11;;;;;;;5.55;3.40;;;;;;;18.00;51.10;98487.89;1770768;79;28154;-88